^^
Saratoga-Weather Station Historical Data
Daily Summary for September 19, 2021 Units:  Metric    English   Both
Daily Weekly Monthly Yearly Custom
  High: Low: Average:
Temperature: 20.6 °C 11.9 °C 15.5 °C
Dew Point: 15 °C 10.9 °C 12.5 °C
Humidity: 94% 66% 83%
Wind Speed: 11.1km/h 0km/h 1.4km/h
Wind Gust: 14.5km/h - -
Wind- - SSE
Pressure: 1012.9 hPa 1011.2 hPa -
Precipitation: 0.0 mm    
Historical Graphs
 
 
Tabular Data for September 19, 2021
Time Temperature Dew Point Pressure Wind Wind Speed Wind Gust Humidity Rainfall Rate (Hourly) solar
00:04 13.4 °C 11.8 °C 1012.9 hPa Calm   1.6 km/h 90% 0.0 mm 0 W/m2
00:10 13.3 °C 11.7 °C 1012.5 hPa South 1.4 km/h 1.6 km/h 90% 0.0 mm 0 W/m2
00:15 13.3 °C 11.7 °C 1012.5 hPa South 1.4 km/h 3.2 km/h 90% 0.0 mm 0 W/m2
00:20 13.3 °C 11.7 °C 1012.5 hPa Calm     90% 0.0 mm 0 W/m2
00:25 13.3 °C 11.7 °C 1012.5 hPa Calm     90% 0.0 mm 0 W/m2
00:30 13.3 °C 11.7 °C 1012.5 hPa Calm   3.2 km/h 90% 0.0 mm 0 W/m2
00:35 13.4 °C 11.8 °C 1012.5 hPa Calm     90% 0.0 mm 0 W/m2
00:40 13.4 °C 11.8 °C 1012.5 hPa Calm   3.2 km/h 90% 0.0 mm 0 W/m2
00:45 13.6 °C 12 °C 1012.5 hPa Calm   3.2 km/h 90% 0.0 mm 0 W/m2
00:50 13.6 °C 11.8 °C 1012.5 hPa Calm     89% 0.0 mm 0 W/m2
00:55 13.6 °C 11.8 °C 1012.5 hPa Calm   3.2 km/h 89% 0.0 mm 0 W/m2
01:00 13.6 °C 11.8 °C 1012.5 hPa Calm   1.6 km/h 89% 0.0 mm 0 W/m2
01:05 13.6 °C 11.8 °C 1012.5 hPa WNW 1.4 km/h 1.6 km/h 89% 0.0 mm 0 W/m2
01:10 13.7 °C 11.9 °C 1012.5 hPa Calm   1.6 km/h 89% 0.0 mm 0 W/m2
01:15 13.7 °C 11.9 °C 1012.5 hPa WNW 1.4 km/h 1.6 km/h 89% 0.0 mm 0 W/m2
01:20 13.7 °C 11.9 °C 1012.5 hPa Calm     89% 0.0 mm 0 W/m2
01:25 13.7 °C 11.9 °C 1012.5 hPa Calm     89% 0.0 mm 0 W/m2
01:30 13.7 °C 11.9 °C 1012.5 hPa Calm     89% 0.0 mm 0 W/m2
01:35 13.7 °C 11.9 °C 1012.5 hPa Calm     89% 0.0 mm 0 W/m2
01:40 13.6 °C 11.8 °C 1012.5 hPa Calm     89% 0.0 mm 0 W/m2
01:45 13.6 °C 11.8 °C 1012.5 hPa Calm     89% 0.0 mm 0 W/m2
01:50 13.5 °C 11.7 °C 1012.5 hPa Calm     89% 0.0 mm 0 W/m2
01:55 13.4 °C 11.6 °C 1012.5 hPa Calm     89% 0.0 mm 0 W/m2
02:00 13.3 °C 11.5 °C 1012.5 hPa Calm     89% 0.0 mm 0 W/m2
02:05 13.3 °C 11.7 °C 1012.2 hPa Calm     90% 0.0 mm 0 W/m2
02:10 13.2 °C 11.6 °C 1012.2 hPa Calm   3.2 km/h 90% 0.0 mm 0 W/m2
02:15 13.2 °C 11.6 °C 1012.2 hPa Calm   1.6 km/h 90% 0.0 mm 0 W/m2
02:20 13.2 °C 11.6 °C 1012.2 hPa Calm     90% 0.0 mm 0 W/m2
02:25 13.1 °C 11.5 °C 1012.2 hPa Calm   3.2 km/h 90% 0.0 mm 0 W/m2
02:30 13.1 °C 11.7 °C 1012.2 hPa Calm     91% 0.0 mm 0 W/m2
02:35 13 °C 11.6 °C 1012.2 hPa Calm     91% 0.0 mm 0 W/m2
02:40 13 °C 11.6 °C 1011.9 hPa Calm     91% 0.0 mm 0 W/m2
02:45 12.9 °C 11.5 °C 1011.9 hPa Calm     91% 0.0 mm 0 W/m2
02:50 12.9 °C 11.5 °C 1011.9 hPa Calm     91% 0.0 mm 0 W/m2
02:55 12.8 °C 11.4 °C 1011.9 hPa Calm     91% 0.0 mm 0 W/m2
03:00 12.8 °C 11.5 °C 1011.9 hPa Calm     92% 0.0 mm 0 W/m2
03:05 12.8 °C 11.5 °C 1011.9 hPa WNW 1.4 km/h 3.2 km/h 92% 0.0 mm 0 W/m2
03:10 12.7 °C 11.4 °C 1011.9 hPa WNW 3.2 km/h 3.2 km/h 92% 0.0 mm 0 W/m2
03:15 12.7 °C 11.4 °C 1011.9 hPa Calm     92% 0.0 mm 0 W/m2
03:20 12.7 °C 11.4 °C 1011.9 hPa Calm     92% 0.0 mm 0 W/m2
03:25 12.7 °C 11.4 °C 1011.9 hPa Calm     92% 0.0 mm 0 W/m2
03:30 12.6 °C 11.3 °C 1011.9 hPa Calm   1.6 km/h 92% 0.0 mm 0 W/m2
03:35 12.6 °C 11.3 °C 1011.9 hPa Calm     92% 0.0 mm 0 W/m2
03:40 12.6 °C 11.5 °C 1011.9 hPa Calm   4.8 km/h 93% 0.0 mm 0 W/m2
03:45 12.6 °C 11.5 °C 1011.9 hPa Calm   3.2 km/h 93% 0.0 mm 0 W/m2
03:50 12.6 °C 11.5 °C 1011.9 hPa SW 1.4 km/h 4.8 km/h 93% 0.0 mm 0 W/m2
03:55 12.5 °C 11.4 °C 1011.9 hPa Calm   1.6 km/h 93% 0.0 mm 0 W/m2
04:01 12.4 °C 11.3 °C 1011.9 hPa Calm   1.6 km/h 93% 0.0 mm 0 W/m2
04:06 12.4 °C 11.3 °C 1011.9 hPa Calm   1.6 km/h 93% 0.0 mm 0 W/m2
04:11 12.4 °C 11.3 °C 1011.9 hPa Calm     93% 0.0 mm 0 W/m2
04:16 12.4 °C 11.3 °C 1011.9 hPa Calm     93% 0.0 mm 0 W/m2
04:21 12.4 °C 11.3 °C 1011.9 hPa Calm     93% 0.0 mm 0 W/m2
04:26 12.4 °C 11.3 °C 1011.9 hPa Calm     93% 0.0 mm 0 W/m2
04:31 12.4 °C 11.3 °C 1011.9 hPa Calm     93% 0.0 mm 0 W/m2
04:36 12.4 °C 11.3 °C 1011.9 hPa Calm     93% 0.0 mm 0 W/m2
04:41 12.5 °C 11.4 °C 1011.9 hPa Calm   1.6 km/h 93% 0.0 mm 0 W/m2
04:46 12.5 °C 11.4 °C 1011.5 hPa Calm   1.6 km/h 93% 0.0 mm 0 W/m2
04:51 12.4 °C 11.3 °C 1011.5 hPa Calm     93% 0.0 mm 0 W/m2
04:56 12.4 °C 11.3 °C 1011.5 hPa Calm     93% 0.0 mm 0 W/m2
05:01 12.3 °C 11.2 °C 1011.5 hPa Calm     93% 0.0 mm 0 W/m2
05:06 12.3 °C 11.2 °C 1011.5 hPa SW 1.4 km/h 3.2 km/h 93% 0.0 mm 0 W/m2
05:11 12.3 °C 11.2 °C 1011.5 hPa SW 1.4 km/h 3.2 km/h 93% 0.0 mm 0 W/m2
05:16 12.2 °C 11.1 °C 1011.5 hPa Calm     93% 0.0 mm 0 W/m2
05:21 12.2 °C 11.1 °C 1011.5 hPa Calm   1.6 km/h 93% 0.0 mm 0 W/m2
05:26 12.2 °C 11.1 °C 1011.5 hPa Calm     93% 0.0 mm 0 W/m2
05:31 12.1 °C 11 °C 1011.5 hPa Calm     93% 0.0 mm 0 W/m2
05:36 12.1 °C 11 °C 1011.5 hPa Calm     93% 0.0 mm 0 W/m2
05:41 12.1 °C 11.2 °C 1011.5 hPa Calm   1.6 km/h 94% 0.0 mm 0 W/m2
05:46 12.1 °C 11.2 °C 1011.5 hPa Calm     94% 0.0 mm 0 W/m2
05:51 12.1 °C 11.2 °C 1011.5 hPa SW 1.6 km/h 1.6 km/h 94% 0.0 mm 0 W/m2
05:56 12.1 °C 11.2 °C 1011.5 hPa Calm     94% 0.0 mm 0 W/m2
06:01 12 °C 11.1 °C 1011.5 hPa Calm   3.2 km/h 94% 0.0 mm 0 W/m2
06:06 12 °C 11.1 °C 1011.5 hPa Calm     94% 0.0 mm 0 W/m2
06:11 12.1 °C 11.2 °C 1011.2 hPa Calm     94% 0.0 mm 0 W/m2
06:16 12.2 °C 11.3 °C 1011.5 hPa Calm   1.6 km/h 94% 0.0 mm 0 W/m2
06:21 12.2 °C 11.3 °C 1011.5 hPa Calm   1.6 km/h 94% 0.0 mm 0 W/m2
06:26 12.2 °C 11.3 °C 1011.5 hPa SW 1.4 km/h 1.6 km/h 94% 0.0 mm 0 W/m2
06:31 12.2 °C 11.3 °C 1011.5 hPa Calm     94% 0.0 mm 0 W/m2
06:36 12.2 °C 11.3 °C 1011.5 hPa SW 1.4 km/h 3.2 km/h 94% 0.0 mm 0 W/m2
06:41 12.1 °C 11 °C 1011.5 hPa Calm   1.6 km/h 93% 0.0 mm 0 W/m2
06:46 12 °C 11.1 °C 1011.5 hPa Calm   1.6 km/h 94% 0.0 mm 0 W/m2
06:51 11.9 °C 11 °C 1011.5 hPa Calm     94% 0.0 mm 0 W/m2
06:56 12 °C 11.1 °C 1011.5 hPa Calm     94% 0.0 mm 0 W/m2
07:01 12 °C 11.1 °C 1011.5 hPa Calm   1.6 km/h 94% 0.0 mm 0 W/m2
07:06 12.1 °C 11.2 °C 1011.5 hPa Calm   3.2 km/h 94% 0.0 mm 0 W/m2
07:11 12.1 °C 11.2 °C 1011.5 hPa Calm     94% 0.0 mm 0 W/m2
07:16 12.2 °C 11.3 °C 1011.5 hPa Calm   3.2 km/h 94% 0.0 mm 5 W/m2
07:21 12.1 °C 11 °C 1011.5 hPa Calm     93% 0.0 mm 5 W/m2
07:26 12.1 °C 11 °C 1011.5 hPa Calm     93% 0.0 mm 11 W/m2
07:31 12 °C 10.9 °C 1011.9 hPa Calm   1.6 km/h 93% 0.0 mm 14 W/m2
07:36 11.9 °C 11 °C 1011.9 hPa Calm     94% 0.0 mm 16 W/m2
07:41 12 °C 11.1 °C 1011.9 hPa Calm     94% 0.0 mm 19 W/m2
07:46 12 °C 11.1 °C 1011.9 hPa Calm     94% 0.0 mm 25 W/m2
07:51 12.1 °C 11.2 °C 1011.9 hPa Calm     94% 0.0 mm 28 W/m2
07:56 12.1 °C 11.2 °C 1011.9 hPa SSW 1.4 km/h 3.2 km/h 94% 0.0 mm 32 W/m2
08:01 12.2 °C 11.3 °C 1011.9 hPa SSW 1.4 km/h 1.6 km/h 94% 0.0 mm 33 W/m2
08:06 12.2 °C 11.1 °C 1011.9 hPa Calm   1.6 km/h 93% 0.0 mm 35 W/m2
08:11 12.3 °C 11.2 °C 1011.9 hPa Calm     93% 0.0 mm 35 W/m2
08:16 12.3 °C 11.2 °C 1011.9 hPa NNW 1.4 km/h 3.2 km/h 93% 0.0 mm 40 W/m2
08:21 12.4 °C 11.3 °C 1011.9 hPa NNE 1.4 km/h 3.2 km/h 93% 0.0 mm 42 W/m2
08:26 12.4 °C 11.3 °C 1011.9 hPa ENE 3.2 km/h 3.2 km/h 93% 0.0 mm 47 W/m2
08:31 12.6 °C 11.3 °C 1011.9 hPa Calm     92% 0.0 mm 93 W/m2
08:36 12.7 °C 11.4 °C 1011.9 hPa NW 1.4 km/h 4.8 km/h 92% 0.0 mm 81 W/m2
08:41 12.9 °C 11.6 °C 1011.5 hPa NE 1.4 km/h 1.6 km/h 92% 0.0 mm 63 W/m2
08:46 13 °C 11.6 °C 1011.5 hPa Calm   1.6 km/h 91% 0.0 mm 70 W/m2
08:51 13.1 °C 11.7 °C 1011.9 hPa Calm   3.2 km/h 91% 0.0 mm 77 W/m2
08:56 13.2 °C 11.6 °C 1011.9 hPa Calm   3.2 km/h 90% 0.0 mm 83 W/m2
09:01 13.3 °C 11.7 °C 1011.9 hPa NE 1.4 km/h 3.2 km/h 90% 0.0 mm 113 W/m2
09:06 13.5 °C 11.7 °C 1011.5 hPa ENE 1.4 km/h 3.2 km/h 89% 0.0 mm 111 W/m2
09:11 13.6 °C 11.8 °C 1011.9 hPa Calm   1.6 km/h 89% 0.0 mm 176 W/m2
09:16 13.8 °C 12 °C 1011.9 hPa ESE 3.2 km/h 4.8 km/h 89% 0.0 mm 199 W/m2
09:21 13.9 °C 11.9 °C 1011.9 hPa ESE 6.4 km/h 8 km/h 88% 0.0 mm 183 W/m2
09:26 14.2 °C 12.1 °C 1011.9 hPa NE 1.4 km/h 3.2 km/h 87% 0.0 mm 142 W/m2
09:31 14.3 °C 12 °C 1012.2 hPa ENE 1.4 km/h 8 km/h 86% 0.0 mm 127 W/m2
09:36 14.3 °C 11.8 °C 1012.2 hPa North 4.7 km/h 6.4 km/h 85% 0.0 mm 127 W/m2
09:41 14.3 °C 11.8 °C 1012.2 hPa Calm   3.2 km/h 85% 0.0 mm 167 W/m2
09:46 14.4 °C 12.1 °C 1012.2 hPa East 4.7 km/h 4.8 km/h 86% 0.0 mm 176 W/m2
09:51 14.4 °C 11.9 °C 1012.2 hPa ENE 3.2 km/h 6.4 km/h 85% 0.0 mm 279 W/m2
09:56 14.6 °C 12.1 °C 1012.2 hPa NNW 3.2 km/h 4.8 km/h 85% 0.0 mm 297 W/m2
10:01 14.8 °C 12.3 °C 1012.5 hPa NW 3.2 km/h 3.2 km/h 85% 0.0 mm 345 W/m2
10:06 15.1 °C 12.4 °C 1012.5 hPa Calm   3.2 km/h 84% 0.0 mm 327 W/m2
10:11 15.3 °C 12.6 °C 1012.5 hPa ESE 1.4 km/h 1.6 km/h 84% 0.0 mm 345 W/m2
10:16 15.6 °C 12.7 °C 1012.5 hPa ESE 3.2 km/h 4.8 km/h 83% 0.0 mm 330 W/m2
10:21 15.8 °C 12.5 °C 1012.2 hPa ENE 1.4 km/h 4.8 km/h 81% 0.0 mm 378 W/m2
10:26 15.9 °C 12.6 °C 1012.5 hPa ESE 11.1 km/h 14.5 km/h 81% 0.0 mm 329 W/m2
10:31 16 °C 12.6 °C 1012.5 hPa SSE 1.4 km/h 4.8 km/h 80% 0.0 mm 434 W/m2
10:36 16.2 °C 12.7 °C 1012.5 hPa ESE 3.2 km/h 4.8 km/h 80% 0.0 mm 422 W/m2
10:41 16.4 °C 12.7 °C 1012.5 hPa East 6.4 km/h 12.9 km/h 79% 0.0 mm 424 W/m2
10:46 16.7 °C 12.8 °C 1012.5 hPa NE 6.4 km/h 6.4 km/h 78% 0.0 mm 411 W/m2
10:51 16.7 °C 12.6 °C 1012.5 hPa NE 3.2 km/h 12.9 km/h 77% 0.0 mm 399 W/m2
10:56 16.8 °C 12.7 °C 1012.5 hPa East 1.4 km/h 3.2 km/h 77% 0.0 mm 404 W/m2
11:01 16.9 °C 12.8 °C 1012.2 hPa ESE 4.7 km/h 4.8 km/h 77% 0.0 mm 450 W/m2
11:14 17.5 °C 13 °C 1012.5 hPa ENE 3.2 km/h 6.4 km/h 75% 0.0 mm 497 W/m2
11:19 17.6 °C 12.9 °C 1012.5 hPa East 4.7 km/h 4.8 km/h 74% 0.0 mm 476 W/m2
11:24 17.7 °C 13 °C 1012.5 hPa East 6.4 km/h 8 km/h 74% 0.0 mm 538 W/m2
11:29 17.8 °C 12.9 °C 1012.5 hPa East 3.2 km/h 9.7 km/h 73% 0.0 mm 512 W/m2
11:34 17.9 °C 13.2 °C 1012.5 hPa ENE 4.7 km/h 4.8 km/h 74% 0.0 mm 517 W/m2
11:39 18.1 °C 13 °C 1012.5 hPa SW 6.4 km/h 9.7 km/h 72% 0.0 mm 548 W/m2
11:44 18.2 °C 13.1 °C 1012.2 hPa East 3.2 km/h 9.7 km/h 72% 0.0 mm 552 W/m2
11:49 18.3 °C 13.2 °C 1012.5 hPa NE 3.2 km/h 9.7 km/h 72% 0.0 mm 462 W/m2
11:54 18.4 °C 13.3 °C 1012.5 hPa East 6.4 km/h 6.4 km/h 72% 0.0 mm 524 W/m2
11:59 18.6 °C 13.2 °C 1012.5 hPa SW 6.4 km/h 9.7 km/h 71% 0.0 mm 292 W/m2
12:04 18.5 °C 13.4 °C 1012.5 hPa ESE 3.2 km/h 4.8 km/h 72% 0.0 mm 605 W/m2
12:09 18.8 °C 13.6 °C 1012.5 hPa NE 1.4 km/h 4.8 km/h 72% 0.0 mm 557 W/m2
12:14 18.9 °C 13.3 °C 1012.5 hPa ESE 3.2 km/h 6.4 km/h 70% 0.0 mm 610 W/m2
12:19 18.9 °C 13.3 °C 1012.5 hPa NE 1.4 km/h 8 km/h 70% 0.0 mm 548 W/m2
12:24 18.9 °C 13.3 °C 1012.5 hPa Calm   4.8 km/h 70% 0.0 mm 265 W/m2
12:29 18.8 °C 13.2 °C 1012.5 hPa Calm   4.8 km/h 70% 0.0 mm 209 W/m2
12:34 18.8 °C 13.4 °C 1012.5 hPa ENE 1.4 km/h 4.8 km/h 71% 0.0 mm 596 W/m2
12:39 18.9 °C 13.7 °C 1012.5 hPa ENE 1.4 km/h 4.8 km/h 72% 0.0 mm 601 W/m2
12:45 19 °C 13.4 °C 1012.5 hPa East 6.4 km/h 6.4 km/h 70% 0.0 mm 566 W/m2
12:50 18.9 °C 13.1 °C 1012.5 hPa East 1.4 km/h 6.4 km/h 69% 0.0 mm 243 W/m2
12:55 18.8 °C 13.2 °C 1012.5 hPa ESE 1.4 km/h 4.8 km/h 70% 0.0 mm 220 W/m2
13:00 18.7 °C 13.3 °C 1012.5 hPa East 1.4 km/h 6.4 km/h 71% 0.0 mm 276 W/m2
13:05 18.6 °C 13.2 °C 1012.5 hPa Calm   3.2 km/h 71% 0.0 mm 299 W/m2
13:10 18.7 °C 13.5 °C 1012.5 hPa Calm   3.2 km/h 72% 0.0 mm 464 W/m2
13:15 18.8 °C 13.6 °C 1012.5 hPa ENE 1.4 km/h 6.4 km/h 72% 0.0 mm 448 W/m2
13:20 19.2 °C 13.8 °C 1012.5 hPa East 6.4 km/h 6.4 km/h 71% 0.0 mm 628 W/m2
13:25 19.3 °C 13.5 °C 1012.5 hPa ENE 1.4 km/h 4.8 km/h 69% 0.0 mm 315 W/m2
13:30 19.2 °C 13.4 °C 1012.5 hPa Calm   9.7 km/h 69% 0.0 mm 253 W/m2
13:35 19.2 °C 13.8 °C 1012.5 hPa SE 3.2 km/h 8 km/h 71% 0.0 mm 348 W/m2
13:40 19.4 °C 14 °C 1012.2 hPa East 3.2 km/h 9.7 km/h 71% 0.0 mm 712 W/m2
13:45 19.4 °C 13.6 °C 1012.2 hPa ENE 1.4 km/h 8 km/h 69% 0.0 mm 230 W/m2
13:50 19.4 °C 13.6 °C 1012.2 hPa Calm   9.7 km/h 69% 0.0 mm 218 W/m2
13:55 19.4 °C 14 °C 1012.2 hPa Calm   1.6 km/h 71% 0.0 mm 494 W/m2
14:00 19.4 °C 14 °C 1012.2 hPa ESE 4.7 km/h 4.8 km/h 71% 0.0 mm 599 W/m2
14:05 19.6 °C 14 °C 1012.2 hPa NNW 1.4 km/h 3.2 km/h 70% 0.0 mm 622 W/m2
14:10 19.8 °C 13.9 °C 1012.2 hPa ESE 1.4 km/h 4.8 km/h 69% 0.0 mm 360 W/m2
14:15 19.8 °C 13.9 °C 1012.2 hPa SSE 1.4 km/h 4.8 km/h 69% 0.0 mm 207 W/m2
14:20 19.8 °C 13.5 °C 1012.5 hPa ENE 3.2 km/h 6.4 km/h 67% 0.0 mm 200 W/m2
14:25 19.8 °C 13.7 °C 1012.2 hPa ENE 1.4 km/h 4.8 km/h 68% 0.0 mm 248 W/m2
14:30 19.7 °C 13.4 °C 1012.2 hPa Calm   1.6 km/h 67% 0.0 mm 362 W/m2
14:35 19.8 °C 13.5 °C 1012.2 hPa Calm   3.2 km/h 67% 0.0 mm 526 W/m2
14:40 20.1 °C 14 °C 1012.2 hPa NE 6.4 km/h 9.7 km/h 68% 0.0 mm 229 W/m2
14:45 19.9 °C 13.6 °C 1012.2 hPa East 1.4 km/h 6.4 km/h 67% 0.0 mm 207 W/m2
14:50 19.8 °C 13.5 °C 1012.2 hPa NE 8 km/h 8 km/h 67% 0.0 mm 211 W/m2
14:55 19.8 °C 13.5 °C 1012.2 hPa Calm   4.8 km/h 67% 0.0 mm 248 W/m2
15:00 19.8 °C 13.5 °C 1012.2 hPa ESE 6.4 km/h 6.4 km/h 67% 0.0 mm 243 W/m2
15:05 19.8 °C 13.3 °C 1012.2 hPa NE 1.4 km/h 3.2 km/h 66% 0.0 mm 315 W/m2
15:10 19.9 °C 13.4 °C 1012.2 hPa Calm   4.8 km/h 66% 0.0 mm 274 W/m2
15:15 20 °C 13.7 °C 1012.2 hPa ESE 1.4 km/h 6.4 km/h 67% 0.0 mm 332 W/m2
15:20 20.1 °C 14.2 °C 1012.2 hPa NNE 9.7 km/h 9.7 km/h 69% 0.0 mm 246 W/m2
15:25 20.2 °C 14.1 °C 1012.2 hPa East 1.4 km/h 4.8 km/h 68% 0.0 mm 199 W/m2
15:30 20.1 °C 13.8 °C 1012.2 hPa Calm   4.8 km/h 67% 0.0 mm 202 W/m2
15:35 19.9 °C 14.3 °C 1012.2 hPa Calm   3.2 km/h 70% 0.0 mm 243 W/m2
15:40 19.9 °C 14.5 °C 1012.2 hPa East 1.4 km/h 1.6 km/h 71% 0.0 mm 422 W/m2
15:45 20.1 °C 14.9 °C 1012.2 hPa East 4.7 km/h 4.8 km/h 72% 0.0 mm 657 W/m2
15:50 20.2 °C 14.8 °C 1012.2 hPa South 1.4 km/h 3.2 km/h 71% 0.0 mm 675 W/m2
15:55 20.4 °C 14.7 °C 1012.2 hPa Calm   6.4 km/h 70% 0.0 mm 457 W/m2
16:00 20.6 °C 14.9 °C 1012.2 hPa SE 4.7 km/h 9.7 km/h 70% 0.0 mm 536 W/m2
16:05 20.5 °C 14.4 °C 1012.2 hPa Calm   9.7 km/h 68% 0.0 mm 214 W/m2
16:10 20.4 °C 14.5 °C 1012.5 hPa SSW 3.2 km/h 4.8 km/h 69% 0.0 mm 236 W/m2
16:15 20.4 °C 14.7 °C 1012.5 hPa WSW 3.2 km/h 9.7 km/h 70% 0.0 mm 287 W/m2
16:20 20.3 °C 14.4 °C 1012.5 hPa West 1.4 km/h 3.2 km/h 69% 0.0 mm 418 W/m2
16:26 20.3 °C 14.4 °C 1012.5 hPa Calm   6.4 km/h 69% 0.0 mm 262 W/m2
16:31 20.3 °C 14.2 °C 1012.5 hPa West 1.4 km/h 8 km/h 68% 0.0 mm 223 W/m2
16:36 20.3 °C 14.6 °C 1012.5 hPa WNW 1.4 km/h 4.8 km/h 70% 0.0 mm 403 W/m2
16:41 20.3 °C 14.6 °C 1012.5 hPa East 9.7 km/h 9.7 km/h 70% 0.0 mm 330 W/m2
16:46 20.1 °C 14.5 °C 1012.5 hPa ENE 1.4 km/h 6.4 km/h 70% 0.0 mm 292 W/m2
16:51 19.9 °C 14.5 °C 1012.5 hPa East 1.4 km/h 6.4 km/h 71% 0.0 mm 158 W/m2
16:56 19.7 °C 14.5 °C 1012.5 hPa East 1.4 km/h 4.8 km/h 72% 0.0 mm 193 W/m2
17:01 19.6 °C 14.4 °C 1012.5 hPa Calm   6.4 km/h 72% 0.0 mm 179 W/m2
17:06 19.6 °C 14.6 °C 1012.5 hPa ESE 1.4 km/h 3.2 km/h 73% 0.0 mm 167 W/m2
17:11 19.6 °C 14.8 °C 1012.5 hPa Calm   6.4 km/h 74% 0.0 mm 253 W/m2
17:16 19.6 °C 14.8 °C 1012.5 hPa WNW 1.4 km/h 4.8 km/h 74% 0.0 mm 160 W/m2
17:21 19.5 °C 14.9 °C 1012.5 hPa Calm   6.4 km/h 75% 0.0 mm 139 W/m2
17:26 19.4 °C 14.4 °C 1012.5 hPa SW 1.4 km/h 4.8 km/h 73% 0.0 mm 179 W/m2
17:31 19.3 °C 14.5 °C 1012.5 hPa NNW 1.4 km/h 3.2 km/h 74% 0.0 mm 127 W/m2
17:36 19.3 °C 14.5 °C 1012.5 hPa WNW 3.2 km/h 3.2 km/h 74% 0.0 mm 171 W/m2
17:41 19.2 °C 14.7 °C 1012.5 hPa Calm   1.6 km/h 75% 0.0 mm 244 W/m2
17:46 19.3 °C 14.8 °C 1012.5 hPa WNW 3.2 km/h 4.8 km/h 75% 0.0 mm 251 W/m2
17:51 19.4 °C 14.9 °C 1012.5 hPa Calm   3.2 km/h 75% 0.0 mm 225 W/m2
17:56 19.5 °C 14.7 °C 1012.5 hPa WSW 3.2 km/h 4.8 km/h 74% 0.0 mm 178 W/m2
18:01 19.6 °C 15 °C 1012.9 hPa West 3.2 km/h 3.2 km/h 75% 0.0 mm 130 W/m2
18:06 19.5 °C 14.7 °C 1012.9 hPa WNW 3.2 km/h 4.8 km/h 74% 0.0 mm 120 W/m2
Juneau County Weather
Compliments of Weather Underground - 2 mb